createdAt,value
2022-12-23T00:00:17.534Z,368
2022-12-23T00:01:15.343Z,365
2022-12-23T00:02:15.734Z,374
2022-12-23T00:03:15.694Z,378
2022-12-23T00:04:16.496Z,383
2022-12-23T00:05:15.654Z,382
2022-12-23T00:06:14.943Z,373
2022-12-23T00:07:15.218Z,368
2022-12-23T00:09:15.229Z,363
2022-12-23T00:10:15.356Z,361
2022-12-23T00:11:15.457Z,363
2022-12-23T00:12:16.553Z,371
2022-12-23T00:13:15.266Z,369
2022-12-23T00:14:20.685Z,368
2022-12-23T00:15:16.237Z,361
2022-12-23T00:16:14.657Z,364
2022-12-23T00:17:22.475Z,352
2022-12-23T00:19:15.341Z,361
2022-12-23T00:20:16.109Z,372
2022-12-23T00:21:15.653Z,367
2022-12-23T00:22:16.196Z,376
2022-12-23T00:23:15.540Z,379
2022-12-23T00:24:15.946Z,373
2022-12-23T00:25:15.720Z,368
2022-12-23T00:26:15.211Z,371
2022-12-23T00:27:15.572Z,368
2022-12-23T00:29:15.759Z,363
2022-12-23T00:30:16.199Z,359
2022-12-23T00:31:15.203Z,358
2022-12-23T00:32:15.118Z,365
2022-12-23T00:33:15.293Z,368
2022-12-23T00:34:14.926Z,366
2022-12-23T00:35:15.318Z,357
2022-12-23T00:37:15.927Z,360
2022-12-23T00:38:14.956Z,352
2022-12-23T00:39:15.218Z,354
2022-12-23T00:40:15.603Z,356
2022-12-23T00:41:15.539Z,365
2022-12-23T00:42:15.546Z,368
2022-12-23T00:43:15.432Z,359
2022-12-23T00:44:15.272Z,356
2022-12-23T00:45:16.326Z,363
2022-12-23T00:46:15.843Z,365
2022-12-23T00:47:15.701Z,356
2022-12-23T00:48:14.559Z,357
2022-12-23T00:49:15.691Z,363
2022-12-23T00:50:15.833Z,360
2022-12-23T00:52:15.928Z,355
2022-12-23T00:53:15.228Z,349
2022-12-23T00:54:15.697Z,354
2022-12-23T00:56:15.185Z,355
2022-12-23T00:57:15.090Z,359
2022-12-23T00:58:14.804Z,355
2022-12-23T00:59:15.929Z,354
2022-12-23T01:00:16.030Z,357
2022-12-23T01:01:16.469Z,347
2022-12-23T01:02:15.412Z,346
2022-12-23T01:03:14.903Z,348
2022-12-23T01:04:15.729Z,346
2022-12-23T01:05:15.087Z,353
2022-12-23T01:06:14.432Z,350
2022-12-23T01:07:15.229Z,354
2022-12-23T01:08:15.363Z,357
2022-12-23T01:09:15.089Z,368
2022-12-23T01:10:15.089Z,356
2022-12-23T01:12:15.041Z,357
2022-12-23T01:14:15.533Z,356
2022-12-23T01:15:14.700Z,348
2022-12-23T01:16:17.634Z,349
2022-12-23T01:17:15.038Z,351
2022-12-23T01:18:15.063Z,348
2022-12-23T01:19:15.013Z,352
2022-12-23T01:20:14.970Z,350
2022-12-23T01:21:14.523Z,357
2022-12-23T01:22:15.243Z,354
2022-12-23T01:23:15.243Z,349
2022-12-23T01:24:14.573Z,346
2022-12-23T01:25:15.582Z,351
2022-12-23T01:26:15.383Z,362
2022-12-23T01:27:15.118Z,352
2022-12-23T01:28:14.926Z,347
2022-12-23T01:29:16.398Z,349
2022-12-23T01:30:15.612Z,347
2022-12-23T01:31:15.396Z,354
2022-12-23T01:32:15.261Z,356
2022-12-23T01:34:15.865Z,355
2022-12-23T01:35:15.168Z,356
2022-12-23T01:36:14.882Z,354
2022-12-23T01:37:15.136Z,343
2022-12-23T01:38:15.160Z,352
2022-12-23T01:39:15.102Z,357
2022-12-23T01:40:15.378Z,347
2022-12-23T01:41:14.799Z,346
2022-12-23T01:42:14.566Z,351
2022-12-23T01:43:15.834Z,353
2022-12-23T01:44:15.627Z,358
2022-12-23T01:45:15.436Z,352
2022-12-23T01:46:15.032Z,345
2022-12-23T01:47:15.644Z,351
2022-12-23T01:48:15.495Z,357
2022-12-23T01:49:15.731Z,354
2022-12-23T01:50:15.518Z,340
2022-12-23T01:51:15.256Z,343
2022-12-23T01:52:15.058Z,352
2022-12-23T01:53:15.051Z,356
2022-12-23T01:54:15.077Z,354
2022-12-23T01:55:15.542Z,360
2022-12-23T01:56:15.263Z,363
2022-12-23T01:57:15.396Z,359
2022-12-23T01:58:15.372Z,369
2022-12-23T01:59:15.636Z,357
2022-12-23T02:00:16.220Z,354
2022-12-23T02:02:15.454Z,359
2022-12-23T02:03:15.979Z,352
2022-12-23T02:04:15.438Z,358
2022-12-23T02:05:15.555Z,365
2022-12-23T02:06:15.567Z,364
2022-12-23T02:07:15.099Z,355
2022-12-23T02:08:15.634Z,354
2022-12-23T02:09:15.881Z,359
2022-12-23T02:10:15.399Z,362
2022-12-23T02:11:15.803Z,363
2022-12-23T02:12:15.636Z,370
2022-12-23T02:14:14.505Z,354
2022-12-23T02:16:14.717Z,355
2022-12-23T02:17:15.656Z,350
2022-12-23T02:18:15.197Z,355
2022-12-23T02:19:14.532Z,348
2022-12-23T02:20:14.918Z,346
2022-12-23T02:21:15.512Z,358
2022-12-23T02:22:14.391Z,373
2022-12-23T02:23:14.414Z,363
2022-12-23T02:24:14.505Z,354
2022-12-23T02:25:14.514Z,344
2022-12-23T02:26:14.192Z,345
2022-12-23T02:27:14.234Z,343
2022-12-23T02:28:14.674Z,344
2022-12-23T02:29:14.178Z,351
2022-12-23T02:30:14.404Z,359
2022-12-23T02:31:14.535Z,360
2022-12-23T02:33:15.189Z,343
2022-12-23T02:34:14.517Z,349
2022-12-23T02:35:15.020Z,357
2022-12-23T02:36:14.931Z,355
2022-12-23T02:37:15.003Z,354
2022-12-23T02:38:15.188Z,351
2022-12-23T02:39:14.883Z,353
2022-12-23T02:40:15.427Z,349
2022-12-23T02:41:14.382Z,346
2022-12-23T02:42:14.864Z,350
2022-12-23T02:44:14.775Z,351
2022-12-23T02:45:15.225Z,352
2022-12-23T02:46:14.797Z,354
2022-12-23T02:47:15.453Z,357
2022-12-23T02:48:15.045Z,371
2022-12-23T02:49:15.060Z,372
2022-12-23T02:50:14.848Z,368
2022-12-23T02:51:15.145Z,361
2022-12-23T02:52:15.341Z,358
2022-12-23T02:54:14.955Z,354
2022-12-23T02:55:15.633Z,345
2022-12-23T02:56:14.539Z,349
2022-12-23T02:57:15.258Z,354
2022-12-23T02:58:14.167Z,357
2022-12-23T02:59:14.526Z,351
2022-12-23T03:00:15.428Z,360
2022-12-23T03:01:14.978Z,358
2022-12-23T03:02:15.588Z,352
2022-12-23T03:03:15.049Z,356
2022-12-23T03:04:14.353Z,358
2022-12-23T03:05:14.932Z,350
2022-12-23T03:06:15.693Z,346
2022-12-23T03:07:18.439Z,352
2022-12-23T03:08:14.745Z,347
2022-12-23T03:09:14.624Z,350
2022-12-23T03:10:14.667Z,340
2022-12-23T03:12:15.134Z,342
2022-12-23T03:13:15.303Z,349
2022-12-23T03:14:14.321Z,347
2022-12-23T03:15:14.860Z,354
2022-12-23T03:17:14.860Z,356
2022-12-23T03:19:14.577Z,360
2022-12-23T03:20:14.802Z,351
2022-12-23T03:21:14.717Z,334
2022-12-23T03:22:14.680Z,340
2022-12-23T03:23:14.160Z,341
2022-12-23T03:24:14.490Z,340
2022-12-23T03:25:15.208Z,351
2022-12-23T03:26:14.501Z,352
2022-12-23T03:27:14.803Z,353
2022-12-23T03:28:14.559Z,350
2022-12-23T03:29:14.996Z,347
2022-12-23T03:30:15.945Z,346
2022-12-23T03:31:14.241Z,350
2022-12-23T03:32:13.979Z,359
2022-12-23T03:34:14.681Z,360
2022-12-23T03:35:15.216Z,356
2022-12-23T03:36:15.122Z,352
2022-12-23T03:37:14.859Z,354
2022-12-23T03:38:14.817Z,356
2022-12-23T03:39:15.084Z,358
2022-12-23T03:40:15.680Z,359
2022-12-23T03:41:14.129Z,358
2022-12-23T03:42:14.450Z,361
2022-12-23T03:43:14.831Z,360
2022-12-23T03:44:15.584Z,357
2022-12-23T03:45:39.306Z,343
2022-12-23T03:46:14.988Z,338
2022-12-23T03:47:14.327Z,350
2022-12-23T03:48:15.274Z,351
2022-12-23T03:49:14.617Z,349
2022-12-23T03:50:14.668Z,348
2022-12-23T03:51:14.755Z,343
2022-12-23T03:52:21.142Z,354
2022-12-23T03:53:14.448Z,357
2022-12-23T03:54:15.394Z,359
2022-12-23T03:55:15.536Z,353
2022-12-23T03:56:14.460Z,349
2022-12-23T03:57:15.136Z,357
2022-12-23T03:58:15.066Z,344
2022-12-23T03:59:14.512Z,338
2022-12-23T04:00:15.829Z,337
2022-12-23T04:01:17.942Z,342
2022-12-23T04:02:14.770Z,346
2022-12-23T04:03:14.947Z,349
2022-12-23T04:06:14.929Z,351
2022-12-23T04:08:14.832Z,355
2022-12-23T04:09:21.754Z,348
2022-12-23T04:10:15.022Z,351
2022-12-23T04:11:15.629Z,346
2022-12-23T04:13:15.104Z,347
2022-12-23T04:14:15.056Z,346
2022-12-23T04:15:15.187Z,342
2022-12-23T04:16:15.101Z,343
2022-12-23T04:17:14.940Z,345
2022-12-23T04:18:14.531Z,338
2022-12-23T04:19:15.066Z,347
2022-12-23T04:20:15.095Z,354
2022-12-23T04:21:14.348Z,352
2022-12-23T04:22:14.858Z,357
2022-12-23T04:24:14.656Z,351
2022-12-23T04:25:14.808Z,355
2022-12-23T04:26:15.037Z,352
2022-12-23T04:27:15.274Z,353
2022-12-23T04:28:14.269Z,356
2022-12-23T04:29:15.007Z,355
2022-12-23T04:30:15.777Z,359
2022-12-23T04:31:14.882Z,343
2022-12-23T04:32:14.325Z,347
2022-12-23T04:33:14.730Z,345
2022-12-23T04:34:14.997Z,352
2022-12-23T04:35:14.570Z,344
2022-12-23T04:36:14.612Z,343
2022-12-23T04:37:14.968Z,350
2022-12-23T04:38:14.451Z,351
2022-12-23T04:39:14.468Z,357
2022-12-23T04:40:14.293Z,356
2022-12-23T04:41:14.874Z,351
2022-12-23T04:42:15.080Z,358
2022-12-23T04:43:15.106Z,357
2022-12-23T04:44:13.757Z,362
2022-12-23T04:45:14.734Z,368
2022-12-23T04:46:14.833Z,362
2022-12-23T04:47:14.997Z,358
2022-12-23T04:48:15.207Z,351
2022-12-23T04:49:14.652Z,356
2022-12-23T04:50:14.489Z,361
2022-12-23T04:51:15.507Z,352
2022-12-23T04:52:14.929Z,345
2022-12-23T04:53:14.688Z,348
2022-12-23T04:54:14.943Z,352
2022-12-23T04:55:15.560Z,353
2022-12-23T04:56:15.126Z,345
2022-12-23T04:57:14.814Z,344
2022-12-23T04:58:14.936Z,338
2022-12-23T04:59:14.816Z,346
2022-12-23T05:00:15.049Z,352
2022-12-23T05:01:14.929Z,366
2022-12-23T05:02:15.705Z,351
2022-12-23T05:03:14.832Z,353
2022-12-23T05:04:15.210Z,360
2022-12-23T05:05:14.961Z,361
2022-12-23T05:06:15.163Z,354
2022-12-23T05:08:14.912Z,357
2022-12-23T05:09:14.666Z,355
2022-12-23T05:10:15.231Z,350
2022-12-23T05:11:15.329Z,343
2022-12-23T05:12:14.500Z,355
2022-12-23T05:13:14.680Z,354
2022-12-23T05:14:15.288Z,348
2022-12-23T05:15:15.564Z,343
2022-12-23T05:16:14.542Z,357
2022-12-23T05:17:15.003Z,362
2022-12-23T05:18:15.374Z,370
2022-12-23T05:19:14.145Z,373
2022-12-23T05:20:14.217Z,364
2022-12-23T05:21:15.126Z,359
2022-12-23T05:22:14.551Z,362
2022-12-23T05:23:14.933Z,355
2022-12-23T05:25:15.698Z,359
2022-12-23T05:26:14.859Z,364
2022-12-23T05:27:15.245Z,362
2022-12-23T05:28:14.948Z,355
2022-12-23T05:29:14.984Z,358
2022-12-23T05:30:15.112Z,351
2022-12-23T05:31:15.398Z,353
2022-12-23T05:32:14.972Z,350
2022-12-23T05:33:14.619Z,342
2022-12-23T05:34:15.112Z,357
2022-12-23T05:35:14.872Z,356
2022-12-23T05:36:15.220Z,359
2022-12-23T05:37:14.869Z,360
2022-12-23T05:38:14.823Z,367
2022-12-23T05:39:15.400Z,355
2022-12-23T05:40:19.929Z,358
2022-12-23T05:41:15.463Z,364
2022-12-23T05:42:15.286Z,365
2022-12-23T05:43:15.384Z,359
2022-12-23T05:44:14.758Z,360
2022-12-23T05:45:15.381Z,365
2022-12-23T05:46:14.947Z,363
2022-12-23T05:48:14.987Z,374
2022-12-23T05:49:14.851Z,365
2022-12-23T05:50:14.717Z,360
2022-12-23T05:51:15.045Z,363
2022-12-23T05:52:15.664Z,359
2022-12-23T05:53:15.273Z,352
2022-12-23T05:54:15.047Z,345
2022-12-23T05:55:14.617Z,348
2022-12-23T05:56:15.260Z,352
2022-12-23T05:57:15.286Z,362
2022-12-23T05:58:14.727Z,372
2022-12-23T05:59:15.592Z,373
2022-12-23T06:00:16.675Z,359
2022-12-23T06:01:15.185Z,350
2022-12-23T06:02:14.546Z,346
2022-12-23T06:03:15.383Z,359
2022-12-23T06:04:15.745Z,365
2022-12-23T06:05:14.594Z,360
2022-12-23T06:06:14.878Z,358
2022-12-23T06:07:15.066Z,360
2022-12-23T06:08:15.121Z,356
2022-12-23T06:09:14.352Z,354
2022-12-23T06:10:14.499Z,363
2022-12-23T06:11:34.110Z,361
2022-12-23T06:12:15.141Z,353
2022-12-23T06:13:14.456Z,361
2022-12-23T06:14:15.347Z,353
2022-12-23T06:15:15.389Z,366
2022-12-23T06:16:14.748Z,359
2022-12-23T06:17:15.548Z,362
2022-12-23T06:18:15.635Z,351
2022-12-23T06:19:15.500Z,357
2022-12-23T06:20:20.458Z,367
2022-12-23T06:22:14.302Z,360
2022-12-23T06:23:14.940Z,363
2022-12-23T06:24:14.782Z,356
2022-12-23T06:25:15.474Z,358
2022-12-23T06:26:14.710Z,361
2022-12-23T06:27:15.484Z,358
2022-12-23T06:28:14.572Z,366
2022-12-23T06:29:15.289Z,367
2022-12-23T06:30:15.539Z,371
2022-12-23T06:32:14.847Z,358
2022-12-23T06:33:15.177Z,363
2022-12-23T06:34:14.873Z,362
2022-12-23T06:36:15.369Z,350
2022-12-23T06:37:15.591Z,347
2022-12-23T06:38:15.115Z,351
2022-12-23T06:39:14.635Z,362
2022-12-23T06:40:14.829Z,369
2022-12-23T06:41:15.069Z,363
2022-12-23T06:42:14.569Z,357
2022-12-23T06:43:14.869Z,350
2022-12-23T06:44:15.220Z,353
2022-12-23T06:46:14.793Z,360
2022-12-23T06:47:15.665Z,359
2022-12-23T06:48:14.825Z,358
2022-12-23T06:49:14.725Z,361
2022-12-23T06:50:15.988Z,356
2022-12-23T06:51:15.222Z,365
2022-12-23T06:52:14.619Z,357
2022-12-23T06:53:15.157Z,355
2022-12-23T06:54:14.582Z,354
2022-12-23T06:55:15.363Z,359
2022-12-23T06:56:15.495Z,362
2022-12-23T06:57:15.422Z,356
2022-12-23T06:58:14.842Z,351
2022-12-23T06:59:14.404Z,354
2022-12-23T07:00:15.326Z,355
2022-12-23T07:02:14.393Z,354
2022-12-23T07:03:15.420Z,349
2022-12-23T07:04:15.509Z,360
2022-12-23T07:06:15.204Z,363
2022-12-23T07:07:15.080Z,367
2022-12-23T07:08:15.301Z,358
2022-12-23T07:09:15.414Z,365
2022-12-23T07:10:14.499Z,355
2022-12-23T07:11:15.217Z,354
2022-12-23T07:12:14.937Z,346
2022-12-23T07:13:13.967Z,361
2022-12-23T07:14:14.792Z,370
2022-12-23T07:15:15.449Z,368
2022-12-23T07:16:14.247Z,355
2022-12-23T07:17:15.070Z,349
2022-12-23T07:18:14.587Z,351
2022-12-23T07:19:14.243Z,365
2022-12-23T07:20:15.037Z,366
2022-12-23T07:21:24.548Z,359
2022-12-23T07:22:14.441Z,363
2022-12-23T07:23:14.446Z,358
2022-12-23T07:24:14.447Z,361
2022-12-23T07:25:14.272Z,355
2022-12-23T07:26:14.907Z,363
2022-12-23T07:27:14.802Z,368
2022-12-23T07:28:14.229Z,364
2022-12-23T07:29:14.928Z,355
2022-12-23T07:30:14.861Z,356
2022-12-23T07:31:14.719Z,367
2022-12-23T07:32:14.385Z,364
2022-12-23T07:33:14.307Z,357
2022-12-23T07:34:14.463Z,363
2022-12-23T07:35:14.553Z,362
2022-12-23T07:36:14.062Z,365
2022-12-23T07:37:14.915Z,361
2022-12-23T07:38:14.766Z,357
2022-12-23T07:39:14.651Z,360
2022-12-23T07:40:14.307Z,364
2022-12-23T07:41:15.052Z,372
2022-12-23T07:42:43.412Z,356
2022-12-23T07:43:15.046Z,358
2022-12-23T07:44:14.885Z,356
2022-12-23T07:45:15.331Z,354
2022-12-23T07:46:14.124Z,356
2022-12-23T07:47:14.320Z,352
2022-12-23T07:48:15.155Z,350
2022-12-23T07:49:14.212Z,349
2022-12-23T07:50:15.406Z,353
2022-12-23T07:51:14.181Z,351
2022-12-23T07:52:14.761Z,352
2022-12-23T07:53:14.357Z,355
2022-12-23T07:54:14.115Z,347
2022-12-23T07:55:14.872Z,348
2022-12-23T07:56:14.549Z,358
2022-12-23T07:57:14.347Z,361
2022-12-23T07:58:13.906Z,360
2022-12-23T08:00:15.355Z,355
2022-12-23T08:01:14.574Z,345
2022-12-23T08:02:14.687Z,344
2022-12-23T08:03:14.435Z,345
2022-12-23T08:04:14.431Z,354
2022-12-23T08:05:14.565Z,357
2022-12-23T08:08:19.655Z,355
2022-12-23T08:09:14.408Z,354
2022-12-23T08:10:14.675Z,357
2022-12-23T08:11:14.912Z,350
2022-12-23T08:12:14.759Z,348
2022-12-23T08:13:14.529Z,358
2022-12-23T08:15:15.177Z,367
2022-12-23T08:16:15.136Z,357
2022-12-23T08:17:14.482Z,352
2022-12-23T08:18:14.339Z,367
2022-12-23T08:20:15.051Z,353
2022-12-23T08:21:14.833Z,362
2022-12-23T08:22:14.621Z,369
2022-12-23T08:23:17.508Z,360
2022-12-23T08:24:14.702Z,356
2022-12-23T08:25:14.744Z,354
2022-12-23T08:26:14.483Z,346
2022-12-23T08:27:14.543Z,360
2022-12-23T08:28:14.445Z,355
2022-12-23T08:29:14.129Z,360
2022-12-23T08:30:15.365Z,363
2022-12-23T08:31:14.433Z,378
2022-12-23T08:32:14.569Z,369
2022-12-23T08:33:14.665Z,353
2022-12-23T08:34:14.760Z,360
2022-12-23T08:35:14.505Z,366
2022-12-23T08:37:15.114Z,365
2022-12-23T08:38:14.991Z,356
2022-12-23T08:39:15.203Z,353
2022-12-23T08:40:14.179Z,366
2022-12-23T08:41:14.994Z,365
2022-12-23T08:42:14.716Z,351
2022-12-23T08:43:15.039Z,354
2022-12-23T08:45:15.104Z,349
2022-12-23T08:46:14.886Z,352
2022-12-23T08:47:14.703Z,355
2022-12-23T08:48:14.685Z,350
2022-12-23T08:49:14.669Z,353
2022-12-23T08:50:14.742Z,345
2022-12-23T08:51:14.879Z,351
2022-12-23T08:52:14.437Z,355
2022-12-23T08:53:14.555Z,344
2022-12-23T08:54:14.412Z,342
2022-12-23T08:55:14.177Z,349
2022-12-23T08:56:14.871Z,352
2022-12-23T08:57:14.714Z,354
2022-12-23T08:58:13.990Z,355
2022-12-23T08:59:18.676Z,351
2022-12-23T09:00:15.458Z,346
2022-12-23T09:01:14.519Z,337
2022-12-23T09:02:14.437Z,341
2022-12-23T09:03:14.899Z,342
2022-12-23T09:04:14.310Z,353
2022-12-23T09:05:14.901Z,354
2022-12-23T09:06:14.392Z,348
2022-12-23T09:07:14.645Z,350
2022-12-23T09:08:13.992Z,353
2022-12-23T09:09:14.548Z,362
2022-12-23T09:10:14.296Z,361
2022-12-23T09:11:14.218Z,354
2022-12-23T09:12:14.830Z,352
2022-12-23T09:13:23.419Z,348
2022-12-23T09:14:15.074Z,338
2022-12-23T09:15:15.392Z,354
2022-12-23T09:17:13.881Z,355
2022-12-23T09:18:14.458Z,350
2022-12-23T09:20:14.239Z,344
2022-12-23T09:21:14.138Z,348
2022-12-23T09:22:14.435Z,351
2022-12-23T09:23:15.122Z,353
2022-12-23T09:24:14.732Z,363
2022-12-23T09:25:14.485Z,364
2022-12-23T09:26:14.600Z,355
2022-12-23T09:27:14.287Z,358
2022-12-23T09:28:14.449Z,359
2022-12-23T09:29:13.985Z,362
2022-12-23T09:30:14.781Z,358
2022-12-23T09:31:14.827Z,362
2022-12-23T09:32:14.835Z,360
2022-12-23T09:33:14.515Z,359
2022-12-23T09:34:14.485Z,355
2022-12-23T09:35:14.072Z,356
2022-12-23T09:36:14.714Z,350
2022-12-23T09:37:14.708Z,352
2022-12-23T09:38:14.506Z,357
2022-12-23T09:39:14.324Z,369
2022-12-23T09:40:15.289Z,368
2022-12-23T09:41:14.224Z,371
2022-12-23T09:42:15.071Z,370
2022-12-23T09:43:14.381Z,366
2022-12-23T09:44:13.974Z,358
2022-12-23T09:45:14.989Z,355
2022-12-23T09:46:14.093Z,359
2022-12-23T09:47:14.759Z,353
2022-12-23T09:48:14.768Z,364
2022-12-23T09:49:14.530Z,361
2022-12-23T09:51:14.610Z,363
2022-12-23T09:52:14.302Z,361
2022-12-23T09:53:14.898Z,364
2022-12-23T09:54:17.201Z,357
2022-12-23T09:55:13.719Z,346
2022-12-23T09:56:14.608Z,333
2022-12-23T09:57:14.540Z,341
2022-12-23T09:58:14.297Z,356
2022-12-23T09:59:14.959Z,366
2022-12-23T10:00:15.524Z,358
2022-12-23T10:01:15.115Z,350
2022-12-23T10:02:14.714Z,371
2022-12-23T10:03:15.432Z,385
2022-12-23T10:04:14.706Z,382
2022-12-23T10:05:15.146Z,379
2022-12-23T10:06:14.685Z,372
2022-12-23T10:07:14.476Z,365
2022-12-23T10:09:14.981Z,359
2022-12-23T10:10:15.159Z,355
2022-12-23T10:11:15.292Z,351
2022-12-23T10:12:14.349Z,355
2022-12-23T10:13:14.427Z,351
2022-12-23T10:15:14.540Z,357
2022-12-23T10:16:14.005Z,351
2022-12-23T10:17:14.529Z,356
2022-12-23T10:20:14.457Z,353
2022-12-23T10:21:15.254Z,351
2022-12-23T10:22:15.068Z,365
2022-12-23T10:23:14.815Z,357
2022-12-23T10:24:14.708Z,358
2022-12-23T10:25:15.187Z,363
2022-12-23T10:26:14.983Z,361
2022-12-23T10:27:14.767Z,363
2022-12-23T10:28:14.449Z,359
2022-12-23T10:29:18.737Z,356
2022-12-23T10:30:42.431Z,364
2022-12-23T10:31:39.245Z,358
2022-12-23T10:32:14.671Z,355
2022-12-23T10:33:14.707Z,365
2022-12-23T10:34:14.243Z,408
2022-12-23T10:35:19.736Z,398
2022-12-23T10:36:14.854Z,381
2022-12-23T10:37:15.041Z,376
2022-12-23T10:38:14.956Z,386
2022-12-23T10:39:15.259Z,370
2022-12-23T10:40:15.236Z,369
2022-12-23T10:41:15.063Z,355
2022-12-23T10:42:14.726Z,362
2022-12-23T10:44:14.836Z,372
2022-12-23T10:45:15.148Z,376
2022-12-23T10:46:15.030Z,364
2022-12-23T10:47:14.145Z,367
2022-12-23T10:48:15.026Z,371
2022-12-23T10:49:14.581Z,384
2022-12-23T10:50:14.536Z,380
2022-12-23T10:51:14.484Z,372
2022-12-23T10:52:14.277Z,368
2022-12-23T10:53:14.476Z,361
2022-12-23T10:54:14.573Z,365
2022-12-23T10:55:14.692Z,368
2022-12-23T10:56:14.834Z,366
2022-12-23T10:57:15.087Z,368
2022-12-23T10:58:14.611Z,361
2022-12-23T10:59:14.390Z,371
2022-12-23T11:00:15.475Z,374
2022-12-23T11:01:21.858Z,371
2022-12-23T11:02:15.074Z,368
2022-12-23T11:03:14.604Z,373
2022-12-23T11:04:14.058Z,380
2022-12-23T11:05:15.320Z,375
2022-12-23T11:06:15.045Z,381
2022-12-23T11:07:42.884Z,375
2022-12-23T11:08:14.400Z,368
2022-12-23T11:09:14.791Z,366
2022-12-23T11:10:14.694Z,364
2022-12-23T11:11:14.498Z,378
2022-12-23T11:12:14.361Z,373
2022-12-23T11:13:13.174Z,370
2022-12-23T11:15:15.346Z,367
2022-12-23T11:16:14.941Z,376
2022-12-23T11:17:15.074Z,369
2022-12-23T11:18:14.765Z,375
2022-12-23T11:19:14.991Z,373
2022-12-23T11:20:15.191Z,368
2022-12-23T11:21:15.102Z,365
2022-12-23T11:22:14.479Z,363
2022-12-23T11:23:14.365Z,364
2022-12-23T11:24:13.938Z,371
2022-12-23T11:25:15.133Z,366
2022-12-23T11:27:14.323Z,369
2022-12-23T11:28:14.239Z,366
2022-12-23T11:29:14.948Z,353
2022-12-23T11:30:14.973Z,361
2022-12-23T11:31:15.009Z,367
2022-12-23T11:32:14.885Z,370
2022-12-23T11:33:15.004Z,369
2022-12-23T11:34:14.657Z,376
2022-12-23T11:35:16.078Z,377
2022-12-23T11:36:14.764Z,383
2022-12-23T11:37:14.571Z,387
2022-12-23T11:41:15.001Z,360
2022-12-23T11:42:14.857Z,362
2022-12-23T11:43:14.700Z,374
2022-12-23T11:44:14.702Z,379
2022-12-23T11:45:15.037Z,385
2022-12-23T11:46:15.096Z,382
2022-12-23T11:47:14.419Z,381
2022-12-23T11:48:14.164Z,378
2022-12-23T11:49:15.017Z,370
2022-12-23T11:50:14.872Z,373
2022-12-23T11:51:15.039Z,378
2022-12-23T11:52:14.751Z,387
2022-12-23T11:53:14.927Z,383
2022-12-23T11:54:14.575Z,386
2022-12-23T11:55:14.879Z,381
2022-12-23T11:56:14.792Z,387
2022-12-23T11:57:15.112Z,384
2022-12-23T11:58:15.094Z,390
2022-12-23T11:59:15.039Z,380
2022-12-23T12:01:14.164Z,375
2022-12-23T12:02:14.971Z,368
2022-12-23T12:03:14.571Z,378
2022-12-23T12:04:14.553Z,384
2022-12-23T12:05:14.649Z,374
2022-12-23T12:06:14.350Z,372
2022-12-23T12:07:14.576Z,370
2022-12-23T12:08:14.706Z,363
2022-12-23T12:09:14.989Z,362
2022-12-23T12:11:14.530Z,361
2022-12-23T12:12:14.117Z,364
2022-12-23T12:13:14.322Z,362
2022-12-23T12:14:14.400Z,366
2022-12-23T12:15:15.155Z,363
2022-12-23T12:16:14.121Z,358
2022-12-23T12:17:15.335Z,366
2022-12-23T12:18:14.178Z,370
2022-12-23T12:19:14.101Z,363
2022-12-23T12:20:15.264Z,358
2022-12-23T12:21:14.406Z,370
2022-12-23T12:22:14.857Z,377
2022-12-23T12:23:14.919Z,376
2022-12-23T12:24:18.995Z,379
2022-12-23T12:25:14.967Z,376
2022-12-23T12:26:15.573Z,384
2022-12-23T12:27:14.208Z,392
2022-12-23T12:28:15.185Z,405
2022-12-23T12:29:14.716Z,408
2022-12-23T12:30:15.554Z,402
2022-12-23T12:31:14.803Z,396
2022-12-23T12:32:14.987Z,383
2022-12-23T12:33:15.055Z,372
2022-12-23T12:34:15.051Z,364
2022-12-23T12:35:14.558Z,371
2022-12-23T12:36:14.807Z,382
2022-12-23T12:37:15.028Z,374
2022-12-23T12:38:14.811Z,370
2022-12-23T12:39:15.220Z,373
2022-12-23T12:40:14.269Z,376
2022-12-23T12:41:14.696Z,380
2022-12-23T12:42:14.881Z,378
2022-12-23T12:43:15.443Z,370
2022-12-23T12:44:14.808Z,367
2022-12-23T12:45:14.758Z,372
2022-12-23T12:46:14.694Z,377
2022-12-23T12:47:28.578Z,369
2022-12-23T12:48:18.671Z,357
2022-12-23T12:49:14.869Z,366
2022-12-23T12:50:15.106Z,360
2022-12-23T12:52:20.125Z,371
2022-12-23T12:53:15.390Z,376
2022-12-23T12:54:14.688Z,371
2022-12-23T12:55:15.112Z,364
2022-12-23T12:56:15.419Z,371
2022-12-23T12:57:14.249Z,364
2022-12-23T12:58:15.018Z,367
2022-12-23T12:59:15.145Z,369
2022-12-23T13:00:20.235Z,377
2022-12-23T13:01:14.475Z,368
2022-12-23T13:02:19.827Z,361
2022-12-23T13:03:14.481Z,365
2022-12-23T13:04:14.602Z,370
2022-12-23T13:05:14.922Z,366
2022-12-23T13:06:14.362Z,359
2022-12-23T13:07:15.114Z,367
2022-12-23T13:08:23.081Z,375
2022-12-23T13:09:15.129Z,385
2022-12-23T13:10:15.056Z,388
2022-12-23T13:11:14.565Z,382
2022-12-23T13:12:15.015Z,396
2022-12-23T13:13:14.596Z,379
2022-12-23T13:14:28.816Z,381
2022-12-23T13:15:15.768Z,377
2022-12-23T13:16:14.697Z,374
2022-12-23T13:17:15.013Z,378
2022-12-23T13:18:15.367Z,377
2022-12-23T13:21:15.012Z,374
2022-12-23T13:22:15.156Z,371
2022-12-23T13:24:14.753Z,374
2022-12-23T13:25:14.991Z,381
2022-12-23T13:26:15.060Z,378
2022-12-23T13:28:14.453Z,373
2022-12-23T13:29:14.621Z,366
2022-12-23T13:30:14.870Z,363
2022-12-23T13:31:15.167Z,357
2022-12-23T13:32:14.193Z,354
2022-12-23T13:33:14.642Z,369
2022-12-23T13:34:14.535Z,371
2022-12-23T13:35:14.732Z,379
2022-12-23T13:36:14.719Z,369
2022-12-23T13:37:14.915Z,366
2022-12-23T13:38:15.094Z,370
2022-12-23T13:40:14.836Z,359
2022-12-23T13:41:14.813Z,358
2022-12-23T13:42:14.658Z,359
2022-12-23T13:43:14.517Z,355
2022-12-23T13:44:14.594Z,349
2022-12-23T13:45:14.843Z,356
2022-12-23T13:46:14.724Z,352
2022-12-23T13:47:14.859Z,362
2022-12-23T13:48:15.030Z,385
2022-12-23T13:49:15.559Z,377
2022-12-23T13:50:14.976Z,370
2022-12-23T13:51:15.175Z,373
2022-12-23T13:52:15.057Z,365
2022-12-23T13:53:14.937Z,354
2022-12-23T13:54:14.950Z,361
2022-12-23T13:55:15.146Z,368
2022-12-23T13:56:15.392Z,364
2022-12-23T13:57:14.710Z,354
2022-12-23T13:58:14.615Z,355
2022-12-23T13:59:14.685Z,362
2022-12-23T14:00:15.434Z,361
2022-12-23T14:01:15.299Z,359
2022-12-23T14:02:14.697Z,354
2022-12-23T14:03:14.732Z,356
2022-12-23T14:04:15.224Z,360
2022-12-23T14:05:16.731Z,365
2022-12-23T14:06:14.625Z,361
2022-12-23T14:07:14.748Z,356
2022-12-23T14:08:14.348Z,359
2022-12-23T14:09:14.284Z,358
2022-12-23T14:10:15.419Z,352
2022-12-23T14:11:14.435Z,355
2022-12-23T14:12:14.483Z,353
2022-12-23T14:13:14.203Z,359
2022-12-23T14:14:13.987Z,358
2022-12-23T14:15:14.968Z,353
2022-12-23T14:16:14.805Z,351
2022-12-23T14:17:14.894Z,344
2022-12-23T14:18:14.441Z,355
2022-12-23T14:19:14.595Z,361
2022-12-23T14:20:14.606Z,358
2022-12-23T14:21:15.101Z,353
2022-12-23T14:22:14.984Z,352
2022-12-23T14:23:15.167Z,353
2022-12-23T14:24:15.516Z,360
2022-12-23T14:25:14.762Z,370
2022-12-23T14:26:14.334Z,364
2022-12-23T14:27:14.770Z,366
2022-12-23T14:28:14.357Z,359
2022-12-23T14:29:14.708Z,356
2022-12-23T14:30:15.265Z,359
2022-12-23T14:31:14.777Z,362
2022-12-23T14:33:14.873Z,358
2022-12-23T14:34:15.010Z,360
2022-12-23T14:35:15.369Z,353
2022-12-23T14:36:15.059Z,358
2022-12-23T14:37:14.580Z,360
2022-12-23T14:38:14.477Z,367
2022-12-23T14:39:14.737Z,363
2022-12-23T14:41:14.980Z,353
2022-12-23T14:42:16.827Z,356
2022-12-23T14:43:14.651Z,357
2022-12-23T14:44:14.589Z,359
2022-12-23T14:45:14.853Z,364
2022-12-23T14:46:14.807Z,361
2022-12-23T14:47:20.933Z,369
2022-12-23T14:48:14.525Z,365
2022-12-23T14:50:14.778Z,355